createdAt,value
2022-08-26T00:01:10.493Z,98925.84
2022-08-26T00:03:37.201Z,98929.31
2022-08-26T00:06:03.763Z,98922.34
2022-08-26T00:08:30.327Z,98932.78
2022-08-26T00:10:56.828Z,98931.06
2022-08-26T00:13:26.373Z,98932.75
2022-08-26T00:15:53.582Z,98930.13
2022-08-26T00:18:22.560Z,98935.34
2022-08-26T00:20:49.566Z,98932.75
2022-08-26T00:23:17.726Z,98935.41
2022-08-26T00:25:44.231Z,98939.78
2022-08-26T00:28:11.084Z,98940.63
2022-08-26T00:30:38.376Z,98940.59
2022-08-26T00:33:06.174Z,98937.97
2022-08-26T00:35:34.758Z,98932.78
2022-08-26T00:38:02.863Z,98937.13
2022-08-26T00:40:34.002Z,98938.84
2022-08-26T00:43:00.905Z,98931.00
2022-08-26T00:45:29.485Z,98939.72
2022-08-26T00:48:01.877Z,98940.59
2022-08-26T00:50:34.543Z,98936.22
2022-08-26T00:53:02.266Z,98939.69
2022-08-26T00:55:37.942Z,98936.22
2022-08-26T00:58:05.993Z,98943.19
2022-08-26T01:00:33.114Z,98945.78
2022-08-26T01:03:01.856Z,98941.44
2022-08-26T01:05:32.045Z,98955.41
2022-08-26T01:07:58.562Z,98941.44
2022-08-26T01:10:28.235Z,98947.47
2022-08-26T01:13:00.836Z,98943.13
2022-08-26T01:15:32.936Z,98943.16
2022-08-26T01:18:00.092Z,98944.91
2022-08-26T01:20:53.760Z,98941.41
2022-08-26T01:23:28.205Z,98937.91
2022-08-26T01:25:57.428Z,98941.44
2022-08-26T01:28:28.424Z,98944.06
2022-08-26T01:30:55.932Z,98942.34
2022-08-26T01:33:40.025Z,98957.16
2022-08-26T01:36:09.542Z,98958.91
2022-08-26T01:38:36.059Z,98951.88
2022-08-26T01:41:02.837Z,98953.63
2022-08-26T01:43:47.469Z,98958.78
2022-08-26T01:46:16.082Z,98957.03
2022-08-26T01:48:43.911Z,98954.44
2022-08-26T01:51:12.122Z,98953.56
2022-08-26T01:53:39.857Z,98958.78
2022-08-26T01:56:09.686Z,98957.94
2022-08-26T01:58:42.771Z,98964.97
2022-08-26T02:01:10.485Z,98960.63
2022-08-26T02:03:57.043Z,98956.25
2022-08-26T02:06:24.389Z,98965.69
2022-08-26T02:08:54.795Z,98961.22
2022-08-26T02:11:21.364Z,98956.88
2022-08-26T02:13:57.897Z,98963.06
2022-08-26T02:16:27.129Z,98962.28
2022-08-26T02:18:54.292Z,98967.53
2022-08-26T02:21:21.768Z,98970.09
2022-08-26T02:23:52.371Z,98970.78
2022-08-26T02:26:23.922Z,98967.31
2022-08-26T02:28:59.335Z,98970.81
2022-08-26T02:31:25.919Z,98968.94
2022-08-26T02:33:52.623Z,98962.88
2022-08-26T02:36:23.939Z,98962.94
2022-08-26T02:38:55.209Z,98965.53
2022-08-26T02:41:23.058Z,98961.22
2022-08-26T02:43:49.743Z,98969.16
2022-08-26T02:46:27.701Z,98963.88
2022-08-26T02:48:56.259Z,98973.34
2022-08-26T02:51:22.799Z,98972.41
2022-08-26T02:53:49.890Z,98968.06
2022-08-26T02:56:17.594Z,98963.72
2022-08-26T02:58:44.131Z,98960.09
2022-08-26T03:01:21.599Z,98966.91
2022-08-26T03:03:48.364Z,98971.28
2022-08-26T03:06:16.380Z,98965.31
2022-08-26T03:08:43.243Z,98968.81
2022-08-26T03:11:10.909Z,98968.72
2022-08-26T03:13:38.439Z,98959.22
2022-08-26T03:16:05.271Z,98962.66
2022-08-26T03:18:31.911Z,98958.47
2022-08-26T03:20:59.118Z,98962.00
2022-08-26T03:23:26.033Z,98969.63
2022-08-26T03:25:53.725Z,98962.41
2022-08-26T03:28:20.264Z,98960.81
2022-08-26T03:30:47.482Z,98958.31
2022-08-26T03:33:14.565Z,98960.09
2022-08-26T03:35:43.454Z,98964.44
2022-08-26T03:38:10.812Z,98967.06
2022-08-26T03:40:37.493Z,98961.72
2022-08-26T03:43:05.462Z,98960.66
2022-08-26T03:45:32.856Z,98958.78
2022-08-26T03:48:00.156Z,98956.28
2022-08-26T03:50:27.016Z,98961.44
2022-08-26T03:52:54.651Z,98959.44
2022-08-26T03:55:24.441Z,98957.31
2022-08-26T03:57:51.598Z,98957.59
2022-08-26T04:00:18.381Z,98964.59
2022-08-26T04:02:46.728Z,98961.03
2022-08-26T04:05:14.511Z,98954.97
2022-08-26T04:07:42.727Z,98958.53
2022-08-26T04:10:11.612Z,98955.63
2022-08-26T04:12:38.650Z,98959.22
2022-08-26T04:15:11.051Z,98953.91
2022-08-26T04:17:37.553Z,98959.91
2022-08-26T04:20:06.226Z,98965.25
2022-08-26T04:22:33.924Z,98953.25
2022-08-26T04:25:00.393Z,98950.66
2022-08-26T04:27:27.060Z,98949.63
2022-08-26T04:29:55.427Z,98944.50
2022-08-26T04:32:22.559Z,98948.13
2022-08-26T04:34:48.996Z,98954.94
2022-08-26T04:37:16.336Z,98951.72
2022-08-26T04:39:44.524Z,98953.50
2022-08-26T04:42:12.550Z,98956.06
2022-08-26T04:44:39.370Z,98948.34
2022-08-26T04:47:06.114Z,98949.31
2022-08-26T04:49:35.252Z,98949.38
2022-08-26T04:52:02.556Z,98945.88
2022-08-26T04:54:29.007Z,98951.84
2022-08-26T04:56:55.742Z,98960.41
2022-08-26T04:59:22.706Z,98963.91
2022-08-26T05:01:52.811Z,98964.81
2022-08-26T05:04:20.596Z,98963.94
2022-08-26T05:06:48.322Z,98976.22
2022-08-26T05:09:15.515Z,98971.91
2022-08-26T05:11:42.041Z,98977.09
2022-08-26T05:14:08.620Z,98974.56
2022-08-26T05:16:35.199Z,98970.94
2022-08-26T05:19:03.456Z,98973.69
2022-08-26T05:21:30.156Z,98982.53
2022-08-26T05:23:57.180Z,98979.00
2022-08-26T05:26:27.504Z,98983.25
2022-08-26T05:28:55.275Z,98979.97
2022-08-26T05:31:28.231Z,98984.28
2022-08-26T05:33:57.510Z,98988.69
2022-08-26T05:36:27.125Z,98991.41
2022-08-26T05:38:54.394Z,98993.13
2022-08-26T05:41:24.755Z,98986.38
2022-08-26T05:43:52.233Z,98996.88
2022-08-26T05:46:18.979Z,98981.25
2022-08-26T05:48:45.514Z,98984.84
2022-08-26T05:51:14.121Z,98988.41
2022-08-26T05:53:43.871Z,98985.06
2022-08-26T05:56:24.656Z,98978.97
2022-08-26T05:58:51.083Z,98974.56
2022-08-26T06:01:20.258Z,98978.88
2022-08-26T06:03:54.844Z,98978.88
2022-08-26T06:06:29.959Z,98978.09
2022-08-26T06:08:59.182Z,98980.69
2022-08-26T06:11:27.552Z,98973.59
2022-08-26T06:14:03.974Z,98984.91
2022-08-26T06:16:31.974Z,98984.97
2022-08-26T06:18:58.450Z,98979.72
2022-08-26T06:21:30.133Z,98988.38
2022-08-26T06:24:18.789Z,98980.59
2022-08-26T06:26:50.931Z,98986.75
2022-08-26T06:29:24.420Z,98990.16
2022-08-26T06:31:52.006Z,98989.22
2022-08-26T06:34:18.598Z,98996.16
2022-08-26T06:36:45.309Z,99000.44
2022-08-26T06:39:14.276Z,98995.09
2022-08-26T06:41:44.883Z,98996.72
2022-08-26T06:44:13.586Z,98995.47
2022-08-26T06:46:41.398Z,98996.34
2022-08-26T06:49:08.049Z,98988.88
2022-08-26T06:51:37.300Z,98987.78
2022-08-26T06:54:05.034Z,99002.81
2022-08-26T06:56:39.816Z,98994.75
2022-08-26T06:59:07.787Z,98998.13
2022-08-26T07:01:38.061Z,98998.88
2022-08-26T07:04:10.373Z,98995.75
2022-08-26T07:06:40.487Z,99000.06
2022-08-26T07:09:09.969Z,98992.25
2022-08-26T07:11:37.940Z,99000.09
2022-08-26T07:14:04.984Z,98987.63
2022-08-26T07:16:31.553Z,98995.28
2022-08-26T07:18:59.662Z,99003.16
2022-08-26T07:21:27.837Z,99001.47
2022-08-26T07:24:00.030Z,98996.41
2022-08-26T07:26:29.469Z,99001.44
2022-08-26T07:28:57.520Z,99005.28
2022-08-26T07:31:27.801Z,98997.25
2022-08-26T07:33:56.817Z,98994.47
2022-08-26T07:36:24.467Z,99006.25
2022-08-26T07:38:51.945Z,99000.53
2022-08-26T07:41:20.441Z,98993.31
2022-08-26T07:43:46.959Z,99008.59
2022-08-26T07:46:18.436Z,99007.25
2022-08-26T07:48:48.786Z,99002.03
2022-08-26T07:51:16.731Z,99007.81
2022-08-26T07:53:43.947Z,99014.16
2022-08-26T07:56:14.651Z,99013.50
2022-08-26T07:58:41.406Z,99014.72
2022-08-26T08:01:09.185Z,99013.97
2022-08-26T08:03:35.766Z,99013.88
2022-08-26T08:06:04.546Z,99014.75
2022-08-26T08:08:32.955Z,99012.19
2022-08-26T08:10:59.690Z,99015.16
2022-08-26T08:13:26.358Z,99021.91
2022-08-26T08:15:52.872Z,99017.59
2022-08-26T08:18:20.579Z,99022.28
2022-08-26T08:20:59.238Z,99031.41
2022-08-26T08:23:32.053Z,99025.28
2022-08-26T08:26:03.091Z,99020.88
2022-08-26T08:28:29.802Z,99021.03
2022-08-26T08:30:56.423Z,99022.72
2022-08-26T08:33:23.185Z,99027.00
2022-08-26T08:35:49.662Z,99022.59
2022-08-26T08:38:16.697Z,99022.53
2022-08-26T08:40:45.492Z,99024.38
2022-08-26T08:43:18.429Z,99020.59
2022-08-26T08:45:49.559Z,99029.19
2022-08-26T08:48:20.649Z,99029.88
2022-08-26T08:50:56.543Z,99023.81
2022-08-26T08:53:41.596Z,99027.31
2022-08-26T08:56:45.910Z,99034.47
2022-08-26T08:59:25.470Z,99034.34
2022-08-26T09:01:52.586Z,99036.63
2022-08-26T09:05:02.157Z,99027.84
2022-08-26T09:07:41.062Z,99036.97
2022-08-26T09:10:19.875Z,99032.09
2022-08-26T09:12:47.659Z,99027.19
2022-08-26T09:15:20.978Z,99036.63
2022-08-26T09:17:59.868Z,99031.59
2022-08-26T09:21:00.453Z,99032.81
2022-08-26T09:23:27.121Z,99037.47
2022-08-26T09:26:03.354Z,99033.69
2022-08-26T09:28:31.545Z,99028.41
2022-08-26T09:31:01.405Z,99037.81
2022-08-26T09:33:30.768Z,99033.44
2022-08-26T09:36:24.710Z,99032.47
2022-08-26T09:38:52.590Z,99035.28
2022-08-26T09:41:31.756Z,99033.44
2022-08-26T09:44:04.436Z,99035.91
2022-08-26T09:46:31.737Z,99037.56
2022-08-26T09:49:47.308Z,99038.84
2022-08-26T09:52:22.382Z,99038.91
2022-08-26T09:55:09.570Z,99035.75
2022-08-26T09:57:45.641Z,99037.47
2022-08-26T10:00:55.452Z,99033.13
2022-08-26T10:03:33.582Z,99033.97
2022-08-26T10:06:06.751Z,99027.72
2022-08-26T10:08:37.478Z,99026.34
2022-08-26T10:11:12.077Z,99030.50
2022-08-26T10:13:42.228Z,99025.16
2022-08-26T10:16:22.377Z,99020.66
2022-08-26T10:18:59.897Z,99020.66
2022-08-26T10:21:30.218Z,99024.41
2022-08-26T10:23:59.204Z,99014.81
2022-08-26T10:26:49.014Z,99017.28
2022-08-26T10:29:26.203Z,99020.66
2022-08-26T10:32:03.707Z,99008.97
2022-08-26T10:34:32.266Z,99011.91
2022-08-26T10:37:15.066Z,99012.84
2022-08-26T10:40:04.621Z,99016.28
2022-08-26T10:42:45.650Z,99009.84
2022-08-26T10:45:15.124Z,99014.50
2022-08-26T10:47:48.905Z,99010.38
2022-08-26T10:50:18.184Z,99010.53
2022-08-26T10:52:51.274Z,98998.97
2022-08-26T10:55:34.982Z,99009.47
2022-08-26T10:58:26.583Z,99011.41
2022-08-26T11:01:31.535Z,99006.47
2022-08-26T11:03:58.656Z,99001.66
2022-08-26T11:06:28.925Z,99005.00
2022-08-26T11:08:57.427Z,99006.47
2022-08-26T11:11:42.110Z,99003.16
2022-08-26T11:14:29.113Z,99008.34
2022-08-26T11:16:57.430Z,99002.56
2022-08-26T11:19:45.336Z,99007.03
2022-08-26T11:22:38.117Z,99000.41
2022-08-26T11:25:15.770Z,99002.41
2022-08-26T11:27:54.285Z,98997.72
2022-08-26T11:30:20.674Z,99013.88
2022-08-26T11:32:54.952Z,99011.09
2022-08-26T11:35:21.734Z,99020.81
2022-08-26T11:38:02.057Z,99023.06
2022-08-26T11:40:33.809Z,99020.88
2022-08-26T11:43:05.666Z,99014.69
2022-08-26T11:45:37.956Z,99011.97
2022-08-26T11:48:22.575Z,99012.59
2022-08-26T11:50:54.443Z,99009.16
2022-08-26T11:53:22.959Z,99011.34
2022-08-26T11:55:50.549Z,99008.00
2022-08-26T11:58:17.433Z,99012.47
2022-08-26T12:00:47.624Z,99014.78
2022-08-26T12:03:20.382Z,98996.84
2022-08-26T12:05:52.032Z,99003.25
2022-08-26T12:08:22.058Z,98999.53
2022-08-26T12:10:49.025Z,99003.88
2022-08-26T12:13:23.993Z,99001.59
2022-08-26T12:15:55.737Z,98997.88
2022-08-26T12:18:29.015Z,98998.13
2022-08-26T12:20:59.231Z,99002.84
2022-08-26T12:23:46.819Z,98997.97
2022-08-26T12:26:24.968Z,99007.13
2022-08-26T12:29:02.305Z,99002.38
2022-08-26T12:31:43.663Z,98995.53
2022-08-26T12:34:17.433Z,99008.44
2022-08-26T12:36:46.629Z,99003.88
2022-08-26T12:39:16.320Z,99012.38
2022-08-26T12:41:49.365Z,99008.28
2022-08-26T12:44:53.186Z,99006.25
2022-08-26T12:47:42.365Z,99010.88
2022-08-26T12:50:12.141Z,99001.72
2022-08-26T12:52:56.821Z,98995.44
2022-08-26T12:55:24.676Z,98998.97
2022-08-26T12:58:29.825Z,98988.28
2022-08-26T13:01:06.332Z,98983.47
2022-08-26T13:03:40.189Z,98983.13
2022-08-26T13:06:29.577Z,98987.72
2022-08-26T13:09:00.551Z,98979.75
2022-08-26T13:11:52.819Z,98986.06
2022-08-26T13:14:24.167Z,98981.72
2022-08-26T13:16:51.615Z,98977.03
2022-08-26T13:19:21.851Z,98979.00
2022-08-26T13:21:53.766Z,98983.78
2022-08-26T13:24:40.600Z,98981.25
2022-08-26T13:27:09.954Z,98978.75
2022-08-26T13:29:36.529Z,98976.25
2022-08-26T17:28:16.096Z,98987.94
2022-08-26T17:30:42.801Z,98993.28
2022-08-26T17:33:10.647Z,98983.63
2022-08-26T17:35:50.032Z,98987.97
2022-08-26T17:38:16.634Z,98986.22
2022-08-26T17:40:43.123Z,98987.16
2022-08-26T17:43:12.312Z,98999.41
2022-08-26T17:45:43.517Z,98989.88
2022-08-26T17:48:11.277Z,98996.88
2022-08-26T17:50:42.370Z,98998.69
2022-08-26T17:53:18.441Z,98997.84
2022-08-26T17:55:45.859Z,98999.53
2022-08-26T17:58:14.812Z,98999.66
2022-08-26T18:00:49.401Z,98999.59
2022-08-26T18:03:19.155Z,98997.03
2022-08-26T18:05:51.045Z,99009.31
2022-08-26T18:08:17.711Z,99003.28
2022-08-26T18:10:44.910Z,99009.41
2022-08-26T18:13:12.919Z,99012.81
2022-08-26T18:15:40.055Z,99006.78
2022-08-26T18:18:15.571Z,99013.09
2022-08-26T18:20:44.159Z,99005.97
2022-08-26T18:23:14.476Z,99007.72
2022-08-26T18:25:43.774Z,99017.59
2022-08-26T18:28:13.211Z,99014.16
2022-08-26T18:30:42.539Z,99017.72
2022-08-26T18:33:14.622Z,99011.59
2022-08-26T18:35:45.041Z,99022.06
2022-08-26T18:38:15.499Z,99019.50
2022-08-26T20:30:04.844Z,99113.03
2022-08-26T20:32:39.524Z,99111.31
2022-08-26T20:35:40.534Z,99119.13
2022-08-26T20:38:28.645Z,99123.50
2022-08-26T20:41:00.484Z,99114.81
2022-08-26T20:43:49.038Z,99120.91
2022-08-26T20:58:13.291Z,99137.53
2022-08-26T22:00:41.282Z,99122.69
2022-08-26T22:03:57.087Z,99128.75
2022-08-26T22:10:14.054Z,99119.94
2022-08-26T22:20:25.981Z,99134.53
2022-08-26T22:27:13.902Z,99136.47
2022-08-26T22:33:28.019Z,99149.56
2022-08-26T22:39:39.059Z,99165.25
